sensor_id;sensor_type;location;lat;lon;timestamp;P1;durP1;ratioP1;P2;durP2;ratioP2
20423;SDS011;10371;49.042;8.002;2023-12-20T00:00:29;10.73;;;9.77;;
20423;SDS011;10371;49.042;8.002;2023-12-20T00:01:29;10.50;;;9.60;;
20423;SDS011;10371;49.042;8.002;2023-12-20T00:02:29;10.60;;;9.60;;
20423;SDS011;10371;49.042;8.002;2023-12-20T00:03:29;10.07;;;9.10;;
20423;SDS011;10371;49.042;8.002;2023-12-20T00:04:30;9.80;;;8.97;;
20423;SDS011;10371;49.042;8.002;2023-12-20T00:05:30;10.07;;;8.73;;
20423;SDS011;10371;49.042;8.002;2023-12-20T00:06:34;9.80;;;8.80;;
20423;SDS011;10371;49.042;8.002;2023-12-20T00:07:35;10.30;;;9.23;;
20423;SDS011;10371;49.042;8.002;2023-12-20T00:08:35;9.97;;;8.97;;
20423;SDS011;10371;49.042;8.002;2023-12-20T00:09:35;10.30;;;9.40;;
20423;SDS011;10371;49.042;8.002;2023-12-20T00:10:35;9.27;;;8.50;;
20423;SDS011;10371;49.042;8.002;2023-12-20T00:11:36;9.87;;;8.87;;
20423;SDS011;10371;49.042;8.002;2023-12-20T00:12:36;10.17;;;9.27;;
20423;SDS011;10371;49.042;8.002;2023-12-20T00:13:36;9.43;;;8.63;;
20423;SDS011;10371;49.042;8.002;2023-12-20T00:14:37;9.30;;;8.40;;
20423;SDS011;10371;49.042;8.002;2023-12-20T00:15:37;9.97;;;8.97;;
20423;SDS011;10371;49.042;8.002;2023-12-20T00:16:37;9.40;;;8.50;;
20423;SDS011;10371;49.042;8.002;2023-12-20T00:17:37;9.43;;;8.63;;
20423;SDS011;10371;49.042;8.002;2023-12-20T00:18:38;9.40;;;8.50;;
20423;SDS011;10371;49.042;8.002;2023-12-20T00:19:38;9.10;;;8.30;;
20423;SDS011;10371;49.042;8.002;2023-12-20T00:20:38;9.93;;;8.87;;
20423;SDS011;10371;49.042;8.002;2023-12-20T00:21:39;10.00;;;9.10;;
20423;SDS011;10371;49.042;8.002;2023-12-20T00:22:39;9.87;;;8.87;;
20423;SDS011;10371;49.042;8.002;2023-12-20T00:23:39;9.10;;;8.30;;
20423;SDS011;10371;49.042;8.002;2023-12-20T00:24:39;10.47;;;9.47;;
20423;SDS011;10371;49.042;8.002;2023-12-20T00:25:40;9.00;;;8.20;;
20423;SDS011;10371;49.042;8.002;2023-12-20T00:26:40;9.93;;;9.00;;
20423;SDS011;10371;49.042;8.002;2023-12-20T00:27:40;9.53;;;8.63;;
20423;SDS011;10371;49.042;8.002;2023-12-20T00:28:41;10.13;;;9.07;;
20423;SDS011;10371;49.042;8.002;2023-12-20T00:29:42;9.70;;;8.70;;
20423;SDS011;10371;49.042;8.002;2023-12-20T00:30:47;9.87;;;8.87;;
20423;SDS011;10371;49.042;8.002;2023-12-20T00:31:48;9.00;;;8.20;;
20423;SDS011;10371;49.042;8.002;2023-12-20T00:32:48;9.77;;;8.87;;
20423;SDS011;10371;49.042;8.002;2023-12-20T00:33:48;9.93;;;8.93;;
20423;SDS011;10371;49.042;8.002;2023-12-20T00:34:49;9.67;;;8.77;;
20423;SDS011;10371;49.042;8.002;2023-12-20T00:35:49;10.17;;;9.27;;
20423;SDS011;10371;49.042;8.002;2023-12-20T00:36:49;9.30;;;8.50;;
20423;SDS011;10371;49.042;8.002;2023-12-20T00:37:49;10.47;;;9.37;;
20423;SDS011;10371;49.042;8.002;2023-12-20T00:38:50;9.23;;;8.33;;
20423;SDS011;10371;49.042;8.002;2023-12-20T00:39:51;9.60;;;8.70;;
20423;SDS011;10371;49.042;8.002;2023-12-20T00:40:51;9.60;;;8.70;;
20423;SDS011;10371;49.042;8.002;2023-12-20T00:41:51;8.70;;;7.90;;
20423;SDS011;10371;49.042;8.002;2023-12-20T00:42:52;9.80;;;8.83;;
20423;SDS011;10371;49.042;8.002;2023-12-20T00:43:52;9.23;;;8.43;;
20423;SDS011;10371;49.042;8.002;2023-12-20T00:44:52;9.13;;;8.23;;
20423;SDS011;10371;49.042;8.002;2023-12-20T00:45:52;9.07;;;7.70;;
20423;SDS011;10371;49.042;8.002;2023-12-20T00:46:53;9.77;;;8.87;;
20423;SDS011;10371;49.042;8.002;2023-12-20T00:47:53;8.83;;;8.00;;
20423;SDS011;10371;49.042;8.002;2023-12-20T00:48:53;8.60;;;7.80;;
20423;SDS011;10371;49.042;8.002;2023-12-20T00:49:54;8.83;;;8.00;;
20423;SDS011;10371;49.042;8.002;2023-12-20T00:50:54;8.83;;;8.03;;
20423;SDS011;10371;49.042;8.002;2023-12-20T00:51:54;8.10;;;7.30;;
20423;SDS011;10371;49.042;8.002;2023-12-20T00:52:54;8.70;;;7.90;;
20423;SDS011;10371;49.042;8.002;2023-12-20T00:53:55;8.80;;;8.03;;
20423;SDS011;10371;49.042;8.002;2023-12-20T00:54:55;8.30;;;7.53;;
20423;SDS011;10371;49.042;8.002;2023-12-20T00:55:55;8.60;;;7.83;;
20423;SDS011;10371;49.042;8.002;2023-12-20T00:56:56;9.27;;;8.43;;
20423;SDS011;10371;49.042;8.002;2023-12-20T00:57:56;8.60;;;7.80;;
20423;SDS011;10371;49.042;8.002;2023-12-20T00:58:56;8.47;;;7.67;;
20423;SDS011;10371;49.042;8.002;2023-12-20T00:59:56;8.73;;;7.93;;
20423;SDS011;10371;49.042;8.002;2023-12-20T01:00:57;8.80;;;8.00;;
20423;SDS011;10371;49.042;8.002;2023-12-20T01:01:58;9.13;;;8.03;;
20423;SDS011;10371;49.042;8.002;2023-12-20T01:02:58;8.67;;;7.87;;
20423;SDS011;10371;49.042;8.002;2023-12-20T01:03:58;8.47;;;7.70;;
20423;SDS011;10371;49.042;8.002;2023-12-20T01:04:58;8.93;;;8.03;;
20423;SDS011;10371;49.042;8.002;2023-12-20T01:05:59;8.07;;;7.37;;
20423;SDS011;10371;49.042;8.002;2023-12-20T01:06:59;8.10;;;7.40;;
20423;SDS011;10371;49.042;8.002;2023-12-20T01:07:59;8.13;;;7.33;;
20423;SDS011;10371;49.042;8.002;2023-12-20T01:09:00;8.47;;;7.63;;
20423;SDS011;10371;49.042;8.002;2023-12-20T01:10:00;8.30;;;7.50;;
20423;SDS011;10371;49.042;8.002;2023-12-20T01:11:00;7.87;;;7.07;;
20423;SDS011;10371;49.042;8.002;2023-12-20T01:12:00;7.60;;;7.00;;
20423;SDS011;10371;49.042;8.002;2023-12-20T01:13:01;8.07;;;7.30;;
20423;SDS011;10371;49.042;8.002;2023-12-20T01:14:01;7.03;;;6.43;;
20423;SDS011;10371;49.042;8.002;2023-12-20T01:15:01;7.93;;;7.23;;
20423;SDS011;10371;49.042;8.002;2023-12-20T01:16:02;6.80;;;6.20;;
20423;SDS011;10371;49.042;8.002;2023-12-20T01:17:02;7.63;;;7.03;;
20423;SDS011;10371;49.042;8.002;2023-12-20T01:18:03;7.37;;;6.67;;
20423;SDS011;10371;49.042;8.002;2023-12-20T01:19:03;7.23;;;6.57;;
20423;SDS011;10371;49.042;8.002;2023-12-20T01:20:04;6.90;;;6.40;;
20423;SDS011;10371;49.042;8.002;2023-12-20T01:21:04;6.43;;;5.93;;
20423;SDS011;10371;49.042;8.002;2023-12-20T01:22:05;6.07;;;5.57;;
20423;SDS011;10371;49.042;8.002;2023-12-20T01:23:05;6.90;;;6.30;;
20423;SDS011;10371;49.042;8.002;2023-12-20T01:24:05;7.20;;;6.60;;
20423;SDS011;10371;49.042;8.002;2023-12-20T01:25:06;6.60;;;6.00;;
20423;SDS011;10371;49.042;8.002;2023-12-20T01:26:06;6.37;;;5.77;;
20423;SDS011;10371;49.042;8.002;2023-12-20T01:27:07;6.23;;;5.63;;
20423;SDS011;10371;49.042;8.002;2023-12-20T01:28:07;6.20;;;5.70;;
20423;SDS011;10371;49.042;8.002;2023-12-20T01:29:07;6.87;;;6.27;;
20423;SDS011;10371;49.042;8.002;2023-12-20T01:30:08;6.63;;;6.00;;
20423;SDS011;10371;49.042;8.002;2023-12-20T01:31:08;6.80;;;6.20;;
20423;SDS011;10371;49.042;8.002;2023-12-20T01:32:09;6.10;;;5.60;;
20423;SDS011;10371;49.042;8.002;2023-12-20T01:33:09;6.30;;;5.80;;
20423;SDS011;10371;49.042;8.002;2023-12-20T01:34:09;6.30;;;5.80;;
20423;SDS011;10371;49.042;8.002;2023-12-20T01:35:09;5.97;;;5.47;;
20423;SDS011;10371;49.042;8.002;2023-12-20T01:36:10;6.03;;;5.53;;
20423;SDS011;10371;49.042;8.002;2023-12-20T01:37:11;6.57;;;5.97;;
20423;SDS011;10371;49.042;8.002;2023-12-20T01:38:11;6.50;;;5.90;;
20423;SDS011;10371;49.042;8.002;2023-12-20T01:39:11;6.27;;;5.77;;
20423;SDS011;10371;49.042;8.002;2023-12-20T01:40:12;5.93;;;5.40;;
20423;SDS011;10371;49.042;8.002;2023-12-20T01:41:12;5.57;;;5.07;;
20423;SDS011;10371;49.042;8.002;2023-12-20T01:42:12;5.40;;;5.00;;
20423;SDS011;10371;49.042;8.002;2023-12-20T01:43:13;5.83;;;5.37;;
20423;SDS011;10371;49.042;8.002;2023-12-20T01:44:13;6.00;;;5.50;;
20423;SDS011;10371;49.042;8.002;2023-12-20T01:45:13;6.27;;;5.67;;
20423;SDS011;10371;49.042;8.002;2023-12-20T01:46:14;5.97;;;5.47;;
20423;SDS011;10371;49.042;8.002;2023-12-20T01:47:15;5.80;;;5.30;;
20423;SDS011;10371;49.042;8.002;2023-12-20T01:48:16;5.70;;;5.10;;
20423;SDS011;10371;49.042;8.002;2023-12-20T01:49:17;6.10;;;5.60;;
20423;SDS011;10371;49.042;8.002;2023-12-20T01:50:17;6.33;;;5.77;;
20423;SDS011;10371;49.042;8.002;2023-12-20T01:51:17;5.73;;;5.23;;
20423;SDS011;10371;49.042;8.002;2023-12-20T01:52:19;6.00;;;5.40;;
20423;SDS011;10371;49.042;8.002;2023-12-20T01:53:20;5.93;;;5.40;;
20423;SDS011;10371;49.042;8.002;2023-12-20T01:54:24;5.80;;;5.33;;
20423;SDS011;10371;49.042;8.002;2023-12-20T01:55:25;6.23;;;5.67;;
20423;SDS011;10371;49.042;8.002;2023-12-20T01:56:27;6.10;;;5.60;;
20423;SDS011;10371;49.042;8.002;2023-12-20T01:57:29;5.17;;;4.67;;
20423;SDS011;10371;49.042;8.002;2023-12-20T01:58:30;5.77;;;5.27;;
20423;SDS011;10371;49.042;8.002;2023-12-20T01:59:30;5.77;;;5.23;;
20423;SDS011;10371;49.042;8.002;2023-12-20T02:00:31;5.97;;;5.33;;
20423;SDS011;10371;49.042;8.002;2023-12-20T02:01:31;5.50;;;5.00;;
20423;SDS011;10371;49.042;8.002;2023-12-20T02:02:32;5.40;;;4.90;;
20423;SDS011;10371;49.042;8.002;2023-12-20T02:03:33;5.80;;;5.30;;
20423;SDS011;10371;49.042;8.002;2023-12-20T02:04:36;5.43;;;4.93;;
20423;SDS011;10371;49.042;8.002;2023-12-20T02:05:37;5.23;;;4.83;;
20423;SDS011;10371;49.042;8.002;2023-12-20T02:06:38;5.03;;;4.63;;
20423;SDS011;10371;49.042;8.002;2023-12-20T02:07:40;5.27;;;4.80;;
20423;SDS011;10371;49.042;8.002;2023-12-20T02:08:40;4.97;;;4.57;;
20423;SDS011;10371;49.042;8.002;2023-12-20T02:09:40;5.17;;;4.77;;
20423;SDS011;10371;49.042;8.002;2023-12-20T02:10:41;5.70;;;5.23;;
20423;SDS011;10371;49.042;8.002;2023-12-20T02:11:42;5.43;;;4.93;;
20423;SDS011;10371;49.042;8.002;2023-12-20T02:12:43;4.93;;;4.47;;
20423;SDS011;10371;49.042;8.002;2023-12-20T02:13:43;5.00;;;4.60;;
20423;SDS011;10371;49.042;8.002;2023-12-20T02:14:43;5.07;;;4.57;;
20423;SDS011;10371;49.042;8.002;2023-12-20T02:15:44;5.20;;;4.80;;
20423;SDS011;10371;49.042;8.002;2023-12-20T02:16:44;5.37;;;4.90;;
20423;SDS011;10371;49.042;8.002;2023-12-20T02:17:45;4.70;;;4.30;;
20423;SDS011;10371;49.042;8.002;2023-12-20T02:18:47;4.63;;;4.23;;
20423;SDS011;10371;49.042;8.002;2023-12-20T02:19:47;4.60;;;4.20;;
20423;SDS011;10371;49.042;8.002;2023-12-20T02:20:47;4.80;;;4.40;;
20423;SDS011;10371;49.042;8.002;2023-12-20T02:21:47;5.00;;;4.40;;
20423;SDS011;10371;49.042;8.002;2023-12-20T02:22:48;5.00;;;4.60;;
20423;SDS011;10371;49.042;8.002;2023-12-20T02:23:48;4.37;;;3.97;;
20423;SDS011;10371;49.042;8.002;2023-12-20T02:24:48;4.57;;;4.20;;
20423;SDS011;10371;49.042;8.002;2023-12-20T02:25:49;4.53;;;4.23;;
20423;SDS011;10371;49.042;8.002;2023-12-20T02:26:49;4.37;;;3.97;;
20423;SDS011;10371;49.042;8.002;2023-12-20T02:27:49;4.70;;;4.30;;
20423;SDS011;10371;49.042;8.002;2023-12-20T02:28:50;4.60;;;4.20;;
20423;SDS011;10371;49.042;8.002;2023-12-20T02:29:50;4.60;;;4.20;;
20423;SDS011;10371;49.042;8.002;2023-12-20T02:30:51;4.13;;;3.73;;
20423;SDS011;10371;49.042;8.002;2023-12-20T02:31:51;4.13;;;3.73;;
20423;SDS011;10371;49.042;8.002;2023-12-20T02:32:51;4.03;;;3.73;;
20423;SDS011;10371;49.042;8.002;2023-12-20T02:33:52;4.00;;;3.70;;
20423;SDS011;10371;49.042;8.002;2023-12-20T02:34:53;3.87;;;3.50;;
20423;SDS011;10371;49.042;8.002;2023-12-20T02:35:53;3.70;;;3.47;;
20423;SDS011;10371;49.042;8.002;2023-12-20T02:36:54;3.63;;;3.33;;
20423;SDS011;10371;49.042;8.002;2023-12-20T02:37:54;4.00;;;3.70;;
20423;SDS011;10371;49.042;8.002;2023-12-20T02:38:54;3.30;;;3.10;;
20423;SDS011;10371;49.042;8.002;2023-12-20T02:39:55;3.53;;;3.23;;
20423;SDS011;10371;49.042;8.002;2023-12-20T02:40:55;4.70;;;3.30;;
20423;SDS011;10371;49.042;8.002;2023-12-20T02:41:55;3.17;;;2.97;;
20423;SDS011;10371;49.042;8.002;2023-12-20T02:42:55;3.67;;;3.37;;
20423;SDS011;10371;49.042;8.002;2023-12-20T02:43:56;3.60;;;3.30;;
20423;SDS011;10371;49.042;8.002;2023-12-20T02:44:56;3.40;;;3.10;;
20423;SDS011;10371;49.042;8.002;2023-12-20T02:45:56;3.50;;;2.90;;
20423;SDS011;10371;49.042;8.002;2023-12-20T02:46:56;3.37;;;3.07;;
20423;SDS011;10371;49.042;8.002;2023-12-20T02:47:57;3.27;;;3.00;;
20423;SDS011;10371;49.042;8.002;2023-12-20T02:48:57;3.30;;;3.00;;
20423;SDS011;10371;49.042;8.002;2023-12-20T02:49:57;3.20;;;2.90;;
20423;SDS011;10371;49.042;8.002;2023-12-20T02:50:57;2.80;;;2.60;;
20423;SDS011;10371;49.042;8.002;2023-12-20T02:51:58;2.90;;;2.70;;
20423;SDS011;10371;49.042;8.002;2023-12-20T02:52:58;3.40;;;3.10;;
20423;SDS011;10371;49.042;8.002;2023-12-20T02:53:58;3.33;;;2.93;;
20423;SDS011;10371;49.042;8.002;2023-12-20T02:54:58;3.33;;;3.13;;
20423;SDS011;10371;49.042;8.002;2023-12-20T02:55:59;3.27;;;2.97;;
20423;SDS011;10371;49.042;8.002;2023-12-20T02:56:59;2.83;;;2.63;;
20423;SDS011;10371;49.042;8.002;2023-12-20T02:57:59;2.70;;;2.50;;
20423;SDS011;10371;49.042;8.002;2023-12-20T02:59:00;2.70;;;2.50;;
20423;SDS011;10371;49.042;8.002;2023-12-20T03:00:00;2.83;;;2.63;;
20423;SDS011;10371;49.042;8.002;2023-12-20T03:01:00;2.67;;;2.47;;
20423;SDS011;10371;49.042;8.002;2023-12-20T03:02:00;3.00;;;2.43;;
20423;SDS011;10371;49.042;8.002;2023-12-20T03:03:01;2.40;;;2.20;;
20423;SDS011;10371;49.042;8.002;2023-12-20T03:04:01;2.50;;;2.40;;
20423;SDS011;10371;49.042;8.002;2023-12-20T03:05:02;2.60;;;2.40;;
20423;SDS011;10371;49.042;8.002;2023-12-20T03:06:03;2.40;;;2.20;;
20423;SDS011;10371;49.042;8.002;2023-12-20T03:07:03;2.50;;;2.30;;
20423;SDS011;10371;49.042;8.002;2023-12-20T03:08:03;2.17;;;2.03;;
20423;SDS011;10371;49.042;8.002;2023-12-20T03:09:04;2.00;;;1.90;;
20423;SDS011;10371;49.042;8.002;2023-12-20T03:10:05;2.07;;;1.97;;
20423;SDS011;10371;49.042;8.002;2023-12-20T03:11:07;2.93;;;2.70;;
20423;SDS011;10371;49.042;8.002;2023-12-20T03:12:07;2.60;;;2.40;;
20423;SDS011;10371;49.042;8.002;2023-12-20T03:13:08;3.50;;;2.90;;
20423;SDS011;10371;49.042;8.002;2023-12-20T03:14:08;2.70;;;2.50;;
20423;SDS011;10371;49.042;8.002;2023-12-20T03:15:08;1.97;;;1.87;;
20423;SDS011;10371;49.042;8.002;2023-12-20T03:16:09;2.27;;;1.93;;
20423;SDS011;10371;49.042;8.002;2023-12-20T03:17:10;2.13;;;1.93;;
20423;SDS011;10371;49.042;8.002;2023-12-20T03:18:11;1.90;;;1.80;;
20423;SDS011;10371;49.042;8.002;2023-12-20T03:19:11;1.90;;;1.80;;
20423;SDS011;10371;49.042;8.002;2023-12-20T03:20:11;1.70;;;1.60;;
20423;SDS011;10371;49.042;8.002;2023-12-20T03:21:12;1.70;;;1.60;;
20423;SDS011;10371;49.042;8.002;2023-12-20T03:22:12;1.60;;;1.50;;
20423;SDS011;10371;49.042;8.002;2023-12-20T03:23:13;1.50;;;1.40;;
20423;SDS011;10371;49.042;8.002;2023-12-20T03:24:13;1.60;;;1.50;;
20423;SDS011;10371;49.042;8.002;2023-12-20T03:25:13;1.70;;;1.43;;
20423;SDS011;10371;49.042;8.002;2023-12-20T03:26:13;1.60;;;1.50;;
20423;SDS011;10371;49.042;8.002;2023-12-20T03:27:14;1.73;;;1.50;;
20423;SDS011;10371;49.042;8.002;2023-12-20T03:28:14;1.40;;;1.40;;
20423;SDS011;10371;49.042;8.002;2023-12-20T03:29:15;1.40;;;1.30;;
20423;SDS011;10371;49.042;8.002;2023-12-20T03:30:15;1.83;;;1.40;;
20423;SDS011;10371;49.042;8.002;2023-12-20T03:31:16;1.30;;;1.30;;
20423;SDS011;10371;49.042;8.002;2023-12-20T03:32:16;1.30;;;1.20;;
20423;SDS011;10371;49.042;8.002;2023-12-20T03:33:16;1.67;;;1.57;;
20423;SDS011;10371;49.042;8.002;2023-12-20T03:34:17;1.40;;;1.30;;
20423;SDS011;10371;49.042;8.002;2023-12-20T03:35:17;1.30;;;1.27;;
20423;SDS011;10371;49.042;8.002;2023-12-20T03:36:17;1.37;;;1.27;;
20423;SDS011;10371;49.042;8.002;2023-12-20T03:37:17;1.40;;;1.30;;
20423;SDS011;10371;49.042;8.002;2023-12-20T03:38:18;1.30;;;1.20;;
20423;SDS011;10371;49.042;8.002;2023-12-20T03:39:18;1.23;;;1.23;;
20423;SDS011;10371;49.042;8.002;2023-12-20T03:40:18;1.40;;;1.33;;
20423;SDS011;10371;49.042;8.002;2023-12-20T03:41:18;1.33;;;1.23;;
20423;SDS011;10371;49.042;8.002;2023-12-20T03:42:19;1.70;;;1.60;;
20423;SDS011;10371;49.042;8.002;2023-12-20T03:43:19;1.50;;;1.40;;
20423;SDS011;10371;49.042;8.002;2023-12-20T03:44:19;1.17;;;1.17;;
20423;SDS011;10371;49.042;8.002;2023-12-20T03:45:20;1.43;;;1.33;;
20423;SDS011;10371;49.042;8.002;2023-12-20T03:46:20;1.13;;;1.13;;
20423;SDS011;10371;49.042;8.002;2023-12-20T03:47:21;2.40;;;1.80;;
20423;SDS011;10371;49.042;8.002;2023-12-20T03:48:21;1.70;;;1.60;;
20423;SDS011;10371;49.042;8.002;2023-12-20T03:49:21;1.80;;;1.70;;
20423;SDS011;10371;49.042;8.002;2023-12-20T03:50:22;1.80;;;1.70;;
20423;SDS011;10371;49.042;8.002;2023-12-20T03:51:22;1.83;;;1.73;;
20423;SDS011;10371;49.042;8.002;2023-12-20T03:52:23;1.87;;;1.77;;
20423;SDS011;10371;49.042;8.002;2023-12-20T03:53:23;1.90;;;1.80;;
20423;SDS011;10371;49.042;8.002;2023-12-20T03:54:23;1.50;;;1.40;;
20423;SDS011;10371;49.042;8.002;2023-12-20T03:55:24;1.73;;;1.23;;
20423;SDS011;10371;49.042;8.002;2023-12-20T03:56:24;1.40;;;1.30;;
20423;SDS011;10371;49.042;8.002;2023-12-20T03:57:24;1.40;;;1.30;;
20423;SDS011;10371;49.042;8.002;2023-12-20T03:58:24;1.37;;;1.30;;
20423;SDS011;10371;49.042;8.002;2023-12-20T03:59:25;1.10;;;1.10;;
20423;SDS011;10371;49.042;8.002;2023-12-20T04:00:25;1.30;;;1.20;;
20423;SDS011;10371;49.042;8.002;2023-12-20T04:01:25;1.00;;;1.00;;
20423;SDS011;10371;49.042;8.002;2023-12-20T04:02:25;1.30;;;1.30;;
20423;SDS011;10371;49.042;8.002;2023-12-20T04:03:26;1.07;;;1.07;;
20423;SDS011;10371;49.042;8.002;2023-12-20T04:04:26;1.50;;;1.40;;
20423;SDS011;10371;49.042;8.002;2023-12-20T04:05:26;1.50;;;1.40;;
20423;SDS011;10371;49.042;8.002;2023-12-20T04:06:26;1.30;;;1.30;;
20423;SDS011;10371;49.042;8.002;2023-12-20T04:07:27;1.20;;;1.20;;
20423;SDS011;10371;49.042;8.002;2023-12-20T04:08:27;1.37;;;1.30;;
20423;SDS011;10371;49.042;8.002;2023-12-20T04:09:27;1.50;;;1.40;;
20423;SDS011;10371;49.042;8.002;2023-12-20T04:10:28;1.40;;;1.30;;
20423;SDS011;10371;49.042;8.002;2023-12-20T04:11:28;1.27;;;1.27;;
20423;SDS011;10371;49.042;8.002;2023-12-20T04:12:28;1.50;;;1.40;;
20423;SDS011;10371;49.042;8.002;2023-12-20T04:13:28;1.53;;;1.43;;
20423;SDS011;10371;49.042;8.002;2023-12-20T04:14:29;1.20;;;1.20;;
20423;SDS011;10371;49.042;8.002;2023-12-20T04:15:29;1.53;;;1.43;;
20423;SDS011;10371;49.042;8.002;2023-12-20T04:16:29;1.50;;;1.40;;
20423;SDS011;10371;49.042;8.002;2023-12-20T04:17:30;1.50;;;1.40;;
20423;SDS011;10371;49.042;8.002;2023-12-20T04:18:30;1.60;;;1.50;;
20423;SDS011;10371;49.042;8.002;2023-12-20T04:19:32;1.70;;;1.60;;
20423;SDS011;10371;49.042;8.002;2023-12-20T04:20:32;1.50;;;1.40;;
20423;SDS011;10371;49.042;8.002;2023-12-20T04:21:32;1.80;;;1.70;;
20423;SDS011;10371;49.042;8.002;2023-12-20T04:22:32;1.70;;;1.60;;
20423;SDS011;10371;49.042;8.002;2023-12-20T04:23:32;1.77;;;1.67;;
20423;SDS011;10371;49.042;8.002;2023-12-20T04:24:33;2.20;;;2.10;;
20423;SDS011;10371;49.042;8.002;2023-12-20T04:25:33;2.40;;;2.30;;
20423;SDS011;10371;49.042;8.002;2023-12-20T04:26:33;1.97;;;1.87;;
20423;SDS011;10371;49.042;8.002;2023-12-20T04:27:33;2.03;;;1.93;;
20423;SDS011;10371;49.042;8.002;2023-12-20T04:28:34;1.70;;;1.60;;
20423;SDS011;10371;49.042;8.002;2023-12-20T04:29:34;1.80;;;1.70;;
20423;SDS011;10371;49.042;8.002;2023-12-20T04:30:34;2.00;;;1.90;;
20423;SDS011;10371;49.042;8.002;2023-12-20T04:31:35;1.90;;;1.80;;
20423;SDS011;10371;49.042;8.002;2023-12-20T04:32:35;1.97;;;1.87;;
20423;SDS011;10371;49.042;8.002;2023-12-20T04:33:35;2.07;;;1.80;;
20423;SDS011;10371;49.042;8.002;2023-12-20T04:34:36;1.67;;;1.57;;
20423;SDS011;10371;49.042;8.002;2023-12-20T04:35:36;1.73;;;1.63;;
20423;SDS011;10371;49.042;8.002;2023-12-20T04:36:37;1.77;;;1.67;;
20423;SDS011;10371;49.042;8.002;2023-12-20T04:37:37;1.90;;;1.80;;
20423;SDS011;10371;49.042;8.002;2023-12-20T04:38:37;1.70;;;1.60;;
20423;SDS011;10371;49.042;8.002;2023-12-20T04:39:37;1.80;;;1.70;;
20423;SDS011;10371;49.042;8.002;2023-12-20T04:40:38;1.83;;;1.73;;
20423;SDS011;10371;49.042;8.002;2023-12-20T04:41:40;1.83;;;1.73;;
20423;SDS011;10371;49.042;8.002;2023-12-20T04:42:41;1.80;;;1.70;;
20423;SDS011;10371;49.042;8.002;2023-12-20T04:43:41;2.07;;;1.97;;
20423;SDS011;10371;49.042;8.002;2023-12-20T04:44:42;2.00;;;1.90;;
20423;SDS011;10371;49.042;8.002;2023-12-20T04:45:43;1.80;;;1.70;;
20423;SDS011;10371;49.042;8.002;2023-12-20T04:46:44;2.00;;;1.90;;
20423;SDS011;10371;49.042;8.002;2023-12-20T04:47:44;2.03;;;1.93;;
20423;SDS011;10371;49.042;8.002;2023-12-20T04:48:46;2.00;;;1.90;;
20423;SDS011;10371;49.042;8.002;2023-12-20T04:49:47;2.00;;;1.90;;
20423;SDS011;10371;49.042;8.002;2023-12-20T04:50:47;2.07;;;1.97;;
20423;SDS011;10371;49.042;8.002;2023-12-20T04:51:47;2.10;;;2.00;;
20423;SDS011;10371;49.042;8.002;2023-12-20T04:52:47;2.13;;;2.03;;
20423;SDS011;10371;49.042;8.002;2023-12-20T04:53:48;2.47;;;2.30;;
20423;SDS011;10371;49.042;8.002;2023-12-20T04:54:48;2.60;;;2.40;;
20423;SDS011;10371;49.042;8.002;2023-12-20T04:55:48;2.37;;;2.27;;
20423;SDS011;10371;49.042;8.002;2023-12-20T04:56:49;2.90;;;2.10;;
20423;SDS011;10371;49.042;8.002;2023-12-20T04:57:49;2.47;;;2.37;;
20423;SDS011;10371;49.042;8.002;2023-12-20T04:58:50;3.30;;;3.10;;
20423;SDS011;10371;49.042;8.002;2023-12-20T04:59:50;2.80;;;2.60;;
20423;SDS011;10371;49.042;8.002;2023-12-20T05:00:50;2.37;;;2.27;;
20423;SDS011;10371;49.042;8.002;2023-12-20T05:01:50;2.07;;;1.97;;
20423;SDS011;10371;49.042;8.002;2023-12-20T05:02:51;2.23;;;2.13;;
20423;SDS011;10371;49.042;8.002;2023-12-20T05:03:52;2.10;;;2.00;;
20423;SDS011;10371;49.042;8.002;2023-12-20T05:04:52;2.10;;;2.00;;
20423;SDS011;10371;49.042;8.002;2023-12-20T05:05:52;2.07;;;1.97;;
20423;SDS011;10371;49.042;8.002;2023-12-20T05:06:52;2.20;;;2.10;;
20423;SDS011;10371;49.042;8.002;2023-12-20T05:07:53;2.27;;;2.17;;
20423;SDS011;10371;49.042;8.002;2023-12-20T05:08:53;2.17;;;2.07;;
20423;SDS011;10371;49.042;8.002;2023-12-20T05:09:53;2.23;;;2.13;;
20423;SDS011;10371;49.042;8.002;2023-12-20T05:10:54;2.93;;;2.73;;
20423;SDS011;10371;49.042;8.002;2023-12-20T05:11:54;3.13;;;2.90;;
20423;SDS011;10371;49.042;8.002;2023-12-20T05:12:55;4.13;;;3.73;;
20423;SDS011;10371;49.042;8.002;2023-12-20T05:13:55;4.20;;;3.80;;
20423;SDS011;10371;49.042;8.002;2023-12-20T05:14:56;5.43;;;4.93;;
20423;SDS011;10371;49.042;8.002;2023-12-20T05:15:56;4.27;;;3.93;;
20423;SDS011;10371;49.042;8.002;2023-12-20T05:16:56;3.30;;;3.10;;
20423;SDS011;10371;49.042;8.002;2023-12-20T05:17:56;3.50;;;3.23;;
20423;SDS011;10371;49.042;8.002;2023-12-20T05:18:57;2.67;;;2.47;;
20423;SDS011;10371;49.042;8.002;2023-12-20T05:19:57;2.60;;;2.40;;
20423;SDS011;10371;49.042;8.002;2023-12-20T05:20:57;4.00;;;3.60;;
20423;SDS011;10371;49.042;8.002;2023-12-20T05:21:58;4.37;;;3.90;;
20423;SDS011;10371;49.042;8.002;2023-12-20T05:22:58;4.53;;;4.13;;
20423;SDS011;10371;49.042;8.002;2023-12-20T05:23:59;4.07;;;3.47;;
20423;SDS011;10371;49.042;8.002;2023-12-20T05:24:59;2.00;;;1.90;;
20423;SDS011;10371;49.042;8.002;2023-12-20T05:26:00;1.93;;;1.83;;
20423;SDS011;10371;49.042;8.002;2023-12-20T05:27:00;2.60;;;2.40;;
20423;SDS011;10371;49.042;8.002;2023-12-20T05:28:00;2.40;;;2.20;;
20423;SDS011;10371;49.042;8.002;2023-12-20T05:29:01;2.10;;;2.00;;
20423;SDS011;10371;49.042;8.002;2023-12-20T05:30:01;2.63;;;2.43;;
20423;SDS011;10371;49.042;8.002;2023-12-20T05:31:02;4.03;;;3.73;;
20423;SDS011;10371;49.042;8.002;2023-12-20T05:32:03;3.07;;;2.87;;
20423;SDS011;10371;49.042;8.002;2023-12-20T05:33:06;2.20;;;2.10;;
20423;SDS011;10371;49.042;8.002;2023-12-20T05:34:07;2.10;;;2.00;;
20423;SDS011;10371;49.042;8.002;2023-12-20T05:35:07;1.80;;;1.70;;
20423;SDS011;10371;49.042;8.002;2023-12-20T05:36:07;2.90;;;2.43;;
20423;SDS011;10371;49.042;8.002;2023-12-20T05:37:11;2.07;;;1.97;;
20423;SDS011;10371;49.042;8.002;2023-12-20T05:38:11;2.40;;;2.20;;
20423;SDS011;10371;49.042;8.002;2023-12-20T05:39:11;2.30;;;2.10;;
20423;SDS011;10371;49.042;8.002;2023-12-20T05:40:12;2.20;;;2.10;;
20423;SDS011;10371;49.042;8.002;2023-12-20T05:41:12;1.90;;;1.80;;
20423;SDS011;10371;49.042;8.002;2023-12-20T05:42:13;1.87;;;1.77;;
20423;SDS011;10371;49.042;8.002;2023-12-20T05:43:13;1.90;;;1.80;;
20423;SDS011;10371;49.042;8.002;2023-12-20T05:44:14;1.70;;;1.60;;
20423;SDS011;10371;49.042;8.002;2023-12-20T05:45:14;1.83;;;1.73;;
20423;SDS011;10371;49.042;8.002;2023-12-20T05:46:14;2.20;;;2.10;;
20423;SDS011;10371;49.042;8.002;2023-12-20T05:47:15;2.00;;;1.90;;
20423;SDS011;10371;49.042;8.002;2023-12-20T05:48:15;1.90;;;1.80;;
20423;SDS011;10371;49.042;8.002;2023-12-20T05:49:15;2.07;;;1.97;;
20423;SDS011;10371;49.042;8.002;2023-12-20T05:50:16;1.97;;;1.87;;
20423;SDS011;10371;49.042;8.002;2023-12-20T05:51:16;1.80;;;1.70;;
20423;SDS011;10371;49.042;8.002;2023-12-20T05:52:16;1.70;;;1.60;;
20423;SDS011;10371;49.042;8.002;2023-12-20T05:53:16;1.70;;;1.60;;
20423;SDS011;10371;49.042;8.002;2023-12-20T05:54:17;2.03;;;1.93;;
20423;SDS011;10371;49.042;8.002;2023-12-20T05:55:17;2.10;;;1.90;;
20423;SDS011;10371;49.042;8.002;2023-12-20T05:56:17;1.83;;;1.73;;
20423;SDS011;10371;49.042;8.002;2023-12-20T05:57:18;2.23;;;2.03;;
20423;SDS011;10371;49.042;8.002;2023-12-20T05:58:18;1.90;;;1.80;;
20423;SDS011;10371;49.042;8.002;2023-12-20T05:59:18;3.30;;;2.97;;
20423;SDS011;10371;49.042;8.002;2023-12-20T06:00:19;2.90;;;2.70;;
20423;SDS011;10371;49.042;8.002;2023-12-20T06:01:19;2.20;;;2.10;;
20423;SDS011;10371;49.042;8.002;2023-12-20T06:02:19;2.37;;;2.17;;
20423;SDS011;10371;49.042;8.002;2023-12-20T06:03:19;2.10;;;1.90;;
20423;SDS011;10371;49.042;8.002;2023-12-20T06:04:20;2.77;;;2.10;;